Time;durP1;ratioP1;P1;durP2;ratioP2;P2;SDS_P1;SDS_P2;PMS_P1;PMS_P2;Temp;Humidity;BMP_temperature;BMP_pressure;BME280_temperature;BME280_humidity;BME280_pressure;Samples;Min_cycle;Max_cycle;Signal;HPM_P1;HPM_P2
2023/02/15 00:00:28;;;;;;;1.60;1.50;;;2.30;99.90;;;;;;5073597;28;20960;-83
2023/02/15 00:02:55;;;;;;;3.37;2.00;;;2.30;99.90;;;;;;5073916;28;20452;-84
2023/02/15 00:05:22;;;;;;;1.80;1.70;;;2.30;99.90;;;;;;5073484;28;20453;-84
2023/02/15 00:07:50;;;;;;;2.67;1.07;;;2.30;99.90;;;;;;5073808;28;20473;-84
2023/02/15 00:10:17;;;;;;;3.70;2.17;;;2.30;99.90;;;;;;5073782;28;20453;-84
2023/02/15 00:12:44;;;;;;;0.77;0.77;;;2.30;99.90;;;;;;5073481;28;20452;-84
2023/02/15 00:15:12;;;;;;;2.00;0.77;;;2.30;99.90;;;;;;5073783;28;20449;-84
2023/02/15 00:17:39;;;;;;;2.27;1.77;;;2.30;99.90;;;;;;5073346;28;20921;-84
2023/02/15 00:20:07;;;;;;;1.90;0.50;;;2.20;99.90;;;;;;5073619;28;20494;-84
2023/02/15 00:22:34;;;;;;;2.00;1.00;;;2.20;99.90;;;;;;5073574;28;20460;-84
2023/02/15 00:25:02;;;;;;;0.40;0.40;;;2.20;99.90;;;;;;5073662;28;20445;-84
2023/02/15 00:27:29;;;;;;;3.23;0.90;;;2.20;99.90;;;;;;5073523;28;20471;-84
2023/02/15 00:29:55;;;;;;;0.50;0.50;;;2.20;99.90;;;;;;5073702;28;20818;-84
2023/02/15 00:32:22;;;;;;;6.37;1.53;;;2.20;99.90;;;;;;5073617;28;20457;-84
2023/02/15 00:34:49;;;;;;;6.43;1.37;;;2.20;99.90;;;;;;5073526;28;20445;-84
2023/02/15 00:37:15;;;;;;;0.70;0.70;;;2.20;99.90;;;;;;5073189;28;20941;-84
2023/02/15 00:39:42;;;;;;;0.67;0.67;;;2.10;99.90;;;;;;5073078;28;20489;-84
2023/02/15 00:42:10;;;;;;;0.40;0.40;;;2.10;99.90;;;;;;5073221;28;20544;-84
2023/02/15 00:44:37;;;;;;;0.53;0.53;;;2.10;99.90;;;;;;5073361;28;20450;-84
2023/02/15 00:47:04;;;;;;;0.80;0.80;;;2.10;99.90;;;;;;5073297;28;20477;-84
2023/02/15 00:49:30;;;;;;;1.40;1.20;;;2.10;99.90;;;;;;5073379;28;20453;-84
2023/02/15 00:51:57;;;;;;;2.50;1.40;;;2.00;99.90;;;;;;5077849;28;20448;-84
2023/02/15 00:54:24;;;;;;;1.17;1.07;;;2.00;99.90;;;;;;5079952;28;20449;-84
2023/02/15 00:56:51;;;;;;;1.37;0.50;;;2.10;99.90;;;;;;5079624;28;20462;-84
2023/02/15 00:59:19;;;;;;;1.07;0.90;;;2.00;99.90;;;;;;5079809;28;20477;-84
2023/02/15 01:01:45;;;;;;;1.17;0.83;;;2.00;99.90;;;;;;5079831;28;20460;-84
2023/02/15 01:04:12;;;;;;;1.37;1.27;;;1.90;99.90;;;;;;5080152;28;20779;-84
2023/02/15 01:06:39;;;;;;;4.63;1.33;;;1.90;99.90;;;;;;5079707;28;20469;-84
2023/02/15 01:09:06;;;;;;;6.10;1.83;;;1.90;99.90;;;;;;5079560;28;20448;-84
2023/02/15 01:11:33;;;;;;;1.47;1.20;;;1.90;99.90;;;;;;5079761;28;20451;-84
2023/02/15 01:13:59;;;;;;;4.77;1.50;;;1.90;99.90;;;;;;5079748;28;20449;-84
2023/02/15 01:16:29;;;;;;;0.50;0.50;;;1.80;99.90;;;;;;5079624;28;20473;-84
2023/02/15 01:18:56;;;;;;;0.63;0.63;;;1.80;99.90;;;;;;5079683;28;20484;-84
2023/02/15 01:21:25;;;;;;;2.23;0.80;;;1.80;99.90;;;;;;5079747;28;20449;-84
2023/02/15 01:23:52;;;;;;;0.60;0.60;;;1.80;99.90;;;;;;5080062;28;20465;-84
2023/02/15 01:26:19;;;;;;;1.83;1.47;;;1.80;99.90;;;;;;5079589;28;20465;-84
2023/02/15 01:28:45;;;;;;;0.90;0.90;;;1.80;99.90;;;;;;5079600;28;20441;-84
2023/02/15 01:31:15;;;;;;;1.07;0.70;;;1.80;99.90;;;;;;5079631;28;20454;-84
2023/02/15 01:33:43;;;;;;;2.10;2.00;;;1.80;99.90;;;;;;5079600;28;20464;-84
2023/02/15 01:36:09;;;;;;;1.47;1.23;;;1.80;99.90;;;;;;5079130;28;20487;-84
2023/02/15 01:38:37;;;;;;;0.63;0.63;;;1.80;99.90;;;;;;5079365;28;20480;-84
2023/02/15 01:41:23;;;;;;;4.03;0.80;;;1.80;99.90;;;;;;5079567;28;20445;-83
2023/02/15 01:43:51;;;;;;;1.27;1.17;;;1.70;99.90;;;;;;5079508;28;20434;-84
2023/02/15 01:46:22;;;;;;;0.77;0.77;;;1.70;99.90;;;;;;5079432;28;20476;-84
2023/02/15 01:48:53;;;;;;;0.30;0.30;;;1.70;99.90;;;;;;5079230;28;20777;-84
2023/02/15 01:51:24;;;;;;;0.90;0.90;;;1.70;99.90;;;;;;5079478;28;20804;-84
2023/02/15 01:53:55;;;;;;;1.53;0.70;;;1.70;99.90;;;;;;5079564;28;20430;-84
2023/02/15 01:56:25;;;;;;;0.70;0.60;;;1.70;99.90;;;;;;5079323;28;20860;-84
2023/02/15 01:58:55;;;;;;;3.50;1.13;;;1.60;99.90;;;;;;5079243;28;20480;-84
2023/02/15 02:01:22;;;;;;;0.70;0.50;;;1.70;99.90;;;;;;5079372;28;20449;-84
2023/02/15 02:03:59;;;;;;;4.73;1.10;;;1.70;99.90;;;;;;5075455;28;20453;-84
2023/02/15 02:06:27;;;;;;;0.63;0.57;;;1.60;99.90;;;;;;5075847;28;20460;-83
2023/02/15 02:08:55;;;;;;;0.57;0.57;;;1.60;99.90;;;;;;5076060;28;20445;-84
2023/02/15 02:11:22;;;;;;;2.40;1.07;;;1.50;99.90;;;;;;5076009;28;20497;-84
2023/02/15 02:13:51;;;;;;;0.67;0.67;;;1.50;99.90;;;;;;5075689;28;20964;-84
2023/02/15 02:16:23;;;;;;;0.70;0.50;;;1.50;99.90;;;;;;5075530;28;21003;-84
2023/02/15 02:19:06;;;;;;;0.40;0.40;;;1.50;99.90;;;;;;5075577;28;20470;-84
2023/02/15 02:22:07;;;;;;;1.10;0.90;;;1.40;99.90;;;;;;5075850;28;20429;-84
2023/02/15 02:25:11;;;;;;;1.90;0.60;;;1.40;99.90;;;;;;5075475;28;20448;-84
2023/02/15 02:27:42;;;;;;;0.60;0.60;;;1.40;99.90;;;;;;5075722;28;20480;-84
2023/02/15 02:30:42;;;;;;;0.60;0.60;;;1.40;99.90;;;;;;5075729;28;20418;-84
2023/02/15 02:33:36;;;;;;;0.90;0.90;;;1.40;99.90;;;;;;5075661;28;20547;-84
2023/02/15 02:36:16;;;;;;;0.93;0.63;;;1.40;99.90;;;;;;5075021;28;20473;-83
2023/02/15 02:38:54;;;;;;;1.23;0.53;;;1.40;99.90;;;;;;5075256;28;20958;-84
2023/02/15 02:41:32;;;;;;;2.00;1.33;;;1.40;99.90;;;;;;5075580;28;20483;-84
2023/02/15 02:44:08;;;;;;;0.70;0.70;;;1.30;99.90;;;;;;5075532;28;20781;-84
2023/02/15 02:46:41;;;;;;;0.90;0.90;;;1.30;99.90;;;;;;5075712;28;20469;-84
2023/02/15 02:49:09;;;;;;;0.80;0.80;;;1.30;99.90;;;;;;5075402;28;20435;-84
2023/02/15 02:51:36;;;;;;;2.73;1.03;;;1.30;99.90;;;;;;5075247;28;20441;-84
2023/02/15 02:54:07;;;;;;;1.00;1.00;;;1.30;99.90;;;;;;5075260;28;20449;-84
2023/02/15 02:56:38;;;;;;;0.97;0.70;;;1.40;99.90;;;;;;5074873;28;20999;-84
2023/02/15 02:59:11;;;;;;;1.63;0.93;;;1.40;99.90;;;;;;5075135;28;20469;-84
2023/02/15 03:01:42;;;;;;;0.50;0.40;;;1.40;99.90;;;;;;5074893;28;20925;-84
2023/02/15 03:04:14;;;;;;;0.83;0.70;;;1.40;99.90;;;;;;5075148;28;20440;-84
2023/02/15 03:06:46;;;;;;;2.00;0.60;;;1.40;99.90;;;;;;5074903;28;20469;-84
2023/02/15 03:09:17;;;;;;;0.70;0.63;;;1.40;99.90;;;;;;5075545;28;20462;-84
2023/02/15 03:11:45;;;;;;;0.70;0.50;;;1.40;99.90;;;;;;5074901;28;20438;-84
2023/02/15 03:14:14;;;;;;;0.57;0.57;;;1.40;99.90;;;;;;5074680;28;20461;-84
2023/02/15 03:16:44;;;;;;;1.13;0.83;;;1.40;99.90;;;;;;5074749;28;20461;-84
2023/02/15 03:19:17;;;;;;;1.80;1.23;;;1.30;99.90;;;;;;5074676;28;20485;-84
2023/02/15 03:21:49;;;;;;;0.90;0.90;;;1.30;99.90;;;;;;5074345;28;20441;-84
2023/02/15 03:24:20;;;;;;;0.40;0.40;;;1.20;99.90;;;;;;5075492;28;20434;-84
2023/02/15 03:26:50;;;;;;;1.13;0.80;;;1.20;99.90;;;;;;5074226;28;20822;-84
2023/02/15 03:29:20;;;;;;;0.60;0.60;;;1.20;99.90;;;;;;5074576;28;20441;-84
2023/02/15 03:31:54;;;;;;;1.90;0.77;;;1.10;99.90;;;;;;5074453;28;20450;-84
2023/02/15 03:34:22;;;;;;;2.20;0.53;;;1.10;99.90;;;;;;5074174;28;20972;-84
2023/02/15 03:36:58;;;;;;;0.80;0.80;;;1.10;99.90;;;;;;5073914;28;20482;-84
2023/02/15 03:39:31;;;;;;;0.40;0.37;;;1.00;99.90;;;;;;5074266;28;20436;-84
2023/02/15 03:42:03;;;;;;;0.63;0.63;;;1.00;99.90;;;;;;5074870;28;20430;-84
2023/02/15 03:44:31;;;;;;;0.90;0.90;;;1.00;99.90;;;;;;5074354;28;20430;-84
2023/02/15 03:47:05;;;;;;;0.80;0.80;;;1.00;99.90;;;;;;5074092;28;20477;-84
2023/02/15 03:49:43;;;;;;;0.70;0.67;;;0.90;99.90;;;;;;5074154;28;20436;-84
2023/02/15 03:52:12;;;;;;;0.70;0.70;;;0.90;99.90;;;;;;5074113;28;20506;-84
2023/02/15 03:54:43;;;;;;;0.70;0.40;;;0.90;99.90;;;;;;5073750;28;20445;-84
2023/02/15 04:02:51;;;;;;;0.60;0.57;;;0.90;99.90;;;;;;5073663;28;20436;-84
2023/02/15 04:05:19;;;;;;;0.30;0.30;;;0.90;99.90;;;;;;5073862;28;20400;-84
2023/02/15 04:07:46;;;;;;;4.50;1.13;;;0.90;99.90;;;;;;5073490;28;20988;-84
2023/02/15 04:12:57;;;;;;;0.40;0.40;;;0.90;99.90;;;;;;5073856;28;20376;-83
2023/02/15 04:18:09;;;;;;;0.93;0.67;;;0.80;99.90;;;;;;5073457;28;20525;-83
2023/02/15 04:26:05;;;;;;;0.70;0.70;;;0.80;99.90;;;;;;5072795;28;20397;-84
2023/02/15 04:28:32;;;;;;;0.40;0.40;;;0.80;99.90;;;;;;5073319;28;20449;-84
2023/02/15 04:30:59;;;;;;;0.30;0.30;;;0.80;99.90;;;;;;5073331;28;20442;-84
2023/02/15 04:33:26;;;;;;;0.43;0.40;;;0.80;99.90;;;;;;5073284;28;20960;-84
2023/02/15 04:35:54;;;;;;;1.30;1.27;;;0.70;99.90;;;;;;5073118;28;20481;-84
2023/02/15 04:38:22;;;;;;;0.60;0.60;;;0.70;99.90;;;;;;5073493;28;20453;-84
2023/02/15 04:40:51;;;;;;;0.53;0.50;;;0.70;99.90;;;;;;5073338;28;20533;-84
2023/02/15 04:43:18;;;;;;;0.87;0.70;;;0.60;99.90;;;;;;5073454;28;20845;-84
2023/02/15 04:45:49;;;;;;;0.40;0.40;;;0.70;99.90;;;;;;5073379;28;20472;-84
2023/02/15 04:48:16;;;;;;;0.73;0.73;;;0.70;99.90;;;;;;5073112;28;20456;-84
2023/02/15 04:50:43;;;;;;;0.93;0.40;;;0.70;99.90;;;;;;5073362;28;20446;-84
2023/02/15 04:53:12;;;;;;;0.67;0.67;;;0.70;99.90;;;;;;5073307;28;20445;-84
2023/02/15 04:55:38;;;;;;;0.30;0.30;;;0.60;99.90;;;;;;5073304;28;20441;-84
2023/02/15 04:58:05;;;;;;;0.50;0.50;;;0.60;99.90;;;;;;5073136;28;20462;-84
2023/02/15 05:00:32;;;;;;;2.10;0.50;;;0.60;99.90;;;;;;5072821;28;20984;-84
2023/02/15 05:02:59;;;;;;;3.10;0.60;;;0.60;99.90;;;;;;5073295;28;20457;-84
2023/02/15 05:05:25;;;;;;;0.60;0.60;;;0.60;99.90;;;;;;5073170;28;20460;-84
2023/02/15 05:07:52;;;;;;;0.30;0.23;;;0.60;99.90;;;;;;5073105;28;20473;-84
2023/02/15 05:10:20;;;;;;;1.33;0.63;;;0.60;99.90;;;;;;5073153;28;20453;-84
2023/02/15 05:12:47;;;;;;;0.70;0.70;;;0.60;99.90;;;;;;5073148;28;20463;-84
2023/02/15 05:15:14;;;;;;;0.70;0.63;;;0.60;99.90;;;;;;5073098;28;20453;-84
2023/02/15 05:17:41;;;;;;;0.50;0.50;;;0.60;99.90;;;;;;5072699;28;20980;-84
2023/02/15 05:20:08;;;;;;;0.43;0.43;;;0.60;99.90;;;;;;5073006;28;20500;-84
2023/02/15 05:22:35;;;;;;;0.50;0.50;;;0.60;99.90;;;;;;5073029;28;20448;-84
2023/02/15 05:28:20;;;;;;;0.80;0.60;;;0.50;99.90;;;;;;5030669;28;21093;-84
2023/02/15 05:30:47;;;;;;;1.27;1.17;;;0.50;99.90;;;;;;5030777;28;20907;-84
2023/02/15 05:33:14;;;;;;;0.53;0.53;;;0.50;99.90;;;;;;5054547;28;20785;-80
2023/02/15 05:35:41;;;;;;;13.80;1.90;;;0.50;99.90;;;;;;5072490;28;20456;-84
2023/02/15 05:38:08;;;;;;;5.17;1.77;;;0.40;99.90;;;;;;5073781;28;20465;-84
2023/02/15 05:40:34;;;;;;;0.40;0.40;;;0.50;99.90;;;;;;5076533;28;20481;-84
2023/02/15 05:43:03;;;;;;;1.13;0.90;;;0.40;99.90;;;;;;5076617;28;20828;-84
2023/02/15 05:45:29;;;;;;;0.70;0.70;;;0.40;99.90;;;;;;5076505;28;20446;-84
2023/02/15 05:47:57;;;;;;;0.63;0.63;;;0.40;99.90;;;;;;5076444;28;20461;-85
2023/02/15 05:50:24;;;;;;;0.60;0.60;;;0.40;99.90;;;;;;5076423;28;20477;-84
2023/02/15 05:52:51;;;;;;;0.30;0.30;;;0.30;99.90;;;;;;5076379;28;20789;-84
2023/02/15 05:55:18;;;;;;;0.40;0.40;;;0.30;99.90;;;;;;5076338;28;20456;-84
2023/02/15 05:57:45;;;;;;;0.83;0.63;;;0.30;99.90;;;;;;5075965;28;20819;-84
2023/02/15 06:00:14;;;;;;;1.57;0.57;;;0.30;99.90;;;;;;5076170;28;20447;-84
2023/02/15 06:02:41;;;;;;;0.50;0.50;;;0.30;99.90;;;;;;5076195;28;20445;-84
2023/02/15 06:05:09;;;;;;;1.27;0.87;;;0.40;99.90;;;;;;5076185;28;20445;-84
2023/02/15 06:07:36;;;;;;;0.50;0.50;;;0.40;99.90;;;;;;5076036;28;20480;-84
2023/02/15 06:10:03;;;;;;;1.00;0.40;;;0.30;99.90;;;;;;5076088;28;20457;-84
2023/02/15 06:12:30;;;;;;;0.90;0.60;;;0.40;99.90;;;;;;5076047;28;20449;-84
2023/02/15 06:14:57;;;;;;;1.23;1.00;;;0.30;99.90;;;;;;5075976;28;20543;-84
2023/02/15 06:17:25;;;;;;;3.80;0.70;;;0.40;99.90;;;;;;5075579;28;20469;-84
2023/02/15 06:19:52;;;;;;;0.63;0.63;;;0.30;99.90;;;;;;5075811;28;20449;-84
2023/02/15 06:22:20;;;;;;;0.80;0.80;;;0.30;99.90;;;;;;5075543;28;20972;-84
2023/02/15 06:24:46;;;;;;;1.43;0.83;;;0.30;99.90;;;;;;5075804;28;20529;-84
2023/02/15 06:27:13;;;;;;;1.00;0.57;;;0.30;99.90;;;;;;5075678;28;20469;-84
2023/02/15 06:29:40;;;;;;;0.30;0.30;;;0.30;99.90;;;;;;5075701;28;20445;-84
2023/02/15 06:32:07;;;;;;;1.13;0.40;;;0.30;99.90;;;;;;5075622;28;20416;-84
2023/02/15 06:34:35;;;;;;;0.70;0.60;;;0.30;99.90;;;;;;5075629;28;20445;-84
2023/02/15 06:37:02;;;;;;;0.40;0.40;;;0.40;99.90;;;;;;5074995;28;20461;-84
2023/02/15 06:39:29;;;;;;;0.50;0.50;;;0.40;99.90;;;;;;5075921;28;20457;-84
2023/02/15 06:41:56;;;;;;;0.50;0.50;;;0.40;99.90;;;;;;5075393;28;20477;-84
2023/02/15 06:44:23;;;;;;;0.37;0.37;;;0.30;99.90;;;;;;5075179;28;20944;-84
2023/02/15 06:46:50;;;;;;;0.57;0.37;;;0.40;99.90;;;;;;5075338;28;20465;-84
2023/02/15 06:49:17;;;;;;;0.40;0.40;;;0.40;99.90;;;;;;5074878;28;20453;-84
2023/02/15 06:51:45;;;;;;;0.40;0.37;;;0.40;99.90;;;;;;5074992;28;20975;-84
2023/02/15 06:54:12;;;;;;;0.90;0.83;;;0.40;99.90;;;;;;5075258;28;20456;-84
2023/02/15 06:56:38;;;;;;;0.50;0.50;;;0.50;99.90;;;;;;5075044;28;20481;-83
2023/02/15 06:59:05;;;;;;;2.37;0.97;;;0.50;99.90;;;;;;5074987;28;20481;-84
2023/02/15 07:01:32;;;;;;;0.93;0.60;;;0.50;99.90;;;;;;5074702;28;21007;-84
2023/02/15 07:03:59;;;;;;;0.97;0.97;;;0.50;99.90;;;;;;5074954;28;20536;-84
2023/02/15 07:06:26;;;;;;;0.30;0.30;;;0.60;99.90;;;;;;5074873;28;20476;-84
2023/02/15 07:08:54;;;;;;;0.40;0.40;;;0.70;99.90;;;;;;5074568;28;20960;-84
2023/02/15 07:14:05;;;;;;;0.37;0.37;;;0.70;99.90;;;;;;5074682;28;20405;-84
2023/02/15 07:16:31;;;;;;;1.27;0.60;;;0.70;99.90;;;;;;5074697;28;20476;-84
2023/02/15 07:18:58;;;;;;;0.67;0.50;;;0.80;99.90;;;;;;5074383;28;20461;-84
2023/02/15 07:21:25;;;;;;;0.70;0.70;;;0.80;99.90;;;;;;5074024;28;21008;-84
2023/02/15 07:23:52;;;;;;;0.90;0.80;;;0.80;99.90;;;;;;5075395;28;20468;-84
2023/02/15 07:26:20;;;;;;;0.87;0.50;;;0.80;99.90;;;;;;5074424;28;20442;-84
2023/02/15 07:28:47;;;;;;;0.40;0.30;;;0.90;99.90;;;;;;5074530;28;20461;-84
2023/02/15 07:31:13;;;;;;;0.90;0.60;;;0.90;99.90;;;;;;5074204;28;20812;-84
2023/02/15 07:33:40;;;;;;;2.60;0.80;;;1.00;99.90;;;;;;5074429;28;20461;-84
2023/02/15 07:36:09;;;;;;;0.90;0.67;;;1.00;99.90;;;;;;5073984;28;20481;-84
2023/02/15 07:38:38;;;;;;;0.63;0.40;;;1.00;99.90;;;;;;5074337;28;20457;-83
2023/02/15 07:41:06;;;;;;;4.10;1.00;;;1.10;99.90;;;;;;5074222;28;20560;-84
2023/02/15 07:43:37;;;;;;;1.13;1.13;;;1.10;99.90;;;;;;5074249;28;20454;-84
2023/02/15 07:46:05;;;;;;;3.50;0.90;;;1.20;99.90;;;;;;5073805;28;20441;-84
2023/02/15 07:48:32;;;;;;;0.30;0.30;;;1.30;99.90;;;;;;5074153;28;20442;-84
2023/02/15 07:51:00;;;;;;;0.40;0.33;;;1.30;99.90;;;;;;5074024;28;20450;-84
2023/02/15 07:53:27;;;;;;;1.33;0.60;;;1.40;99.90;;;;;;5074102;28;20445;-84
2023/02/15 07:55:54;;;;;;;0.40;0.30;;;1.50;99.90;;;;;;5073455;28;20979;-84
2023/02/15 07:58:50;;;;;;;0.60;0.60;;;1.50;99.90;;;;;;5073896;28;20449;-83
2023/02/15 08:01:09;;;;;;;3.60;1.60;;;1.60;99.90;;;;;;5072498;28;20473;-84
2023/02/15 08:03:36;;;;;;;2.73;0.77;;;1.60;99.90;;;;;;5073830;28;20445;-83
2023/02/15 08:06:03;;;;;;;1.23;1.13;;;1.60;99.90;;;;;;5073728;28;20473;-84
2023/02/15 08:08:32;;;;;;;5.30;1.20;;;1.60;99.90;;;;;;5073833;28;20780;-83
2023/02/15 08:13:56;;;;;;;0.57;0.57;;;1.60;99.90;;;;;;5073757;28;20409;-83
2023/02/15 08:16:28;;;;;;;2.40;1.20;;;1.70;99.90;;;;;;5073343;28;21016;-84
2023/02/15 08:18:56;;;;;;;0.87;0.87;;;1.70;99.90;;;;;;5074367;28;20449;-83
2023/02/15 08:21:23;;;;;;;1.00;1.00;;;1.70;99.90;;;;;;5073207;28;21008;-83
2023/02/15 08:23:50;;;;;;;2.90;0.87;;;1.70;99.90;;;;;;5073576;28;20457;-83
2023/02/15 08:26:17;;;;;;;0.90;0.50;;;1.70;99.90;;;;;;5073436;28;20832;-83
2023/02/15 08:28:46;;;;;;;0.40;0.40;;;1.80;99.90;;;;;;5073543;28;20450;-83
2023/02/15 08:31:14;;;;;;;2.97;1.10;;;1.90;99.90;;;;;;5073133;28;20866;-83
2023/02/15 08:33:43;;;;;;;0.83;0.77;;;1.90;99.90;;;;;;5073514;28;20441;-83
2023/02/15 08:36:12;;;;;;;0.57;0.57;;;2.00;99.90;;;;;;5073047;28;20486;-83
2023/02/15 08:38:39;;;;;;;1.60;1.50;;;2.10;99.90;;;;;;5073834;28;20805;-83
2023/02/15 08:41:15;;;;;;;0.80;0.80;;;2.20;99.90;;;;;;5072997;28;20513;-83
2023/02/15 08:43:42;;;;;;;2.60;1.40;;;2.40;99.90;;;;;;5073023;28;20951;-83
2023/02/15 08:46:10;;;;;;;0.70;0.70;;;2.50;99.90;;;;;;5072935;28;20900;-83
2023/02/15 08:48:37;;;;;;;0.40;0.40;;;2.60;99.90;;;;;;5073279;28;20449;-83
2023/02/15 08:51:11;;;;;;;5.03;1.37;;;2.80;99.90;;;;;;5073445;28;20458;-83
2023/02/15 08:53:38;;;;;;;0.73;0.73;;;3.00;99.90;;;;;;5073031;28;20430;-83
2023/02/15 08:56:06;;;;;;;3.43;0.50;;;3.20;99.90;;;;;;5073159;28;20452;-83
2023/02/15 08:58:33;;;;;;;1.77;0.93;;;3.50;99.90;;;;;;5072921;28;20445;-83
2023/02/15 09:01:01;;;;;;;2.30;1.03;;;3.70;99.90;;;;;;5073063;28;20488;-83
2023/02/15 09:03:28;;;;;;;4.73;0.60;;;4.00;99.90;;;;;;5072876;28;20441;-83
2023/02/15 09:05:59;;;;;;;3.93;1.07;;;4.50;99.90;;;;;;5073402;28;20445;-83
2023/02/15 09:08:28;;;;;;;0.50;0.50;;;5.10;99.90;;;;;;5073180;28;20438;-83
2023/02/15 09:10:55;;;;;;;2.50;1.97;;;5.80;99.90;;;;;;5073125;28;20434;-83
2023/02/15 09:13:22;;;;;;;0.93;0.90;;;6.80;99.90;;;;;;5076040;28;20446;-83
2023/02/15 09:15:49;;;;;;;2.23;0.73;;;7.90;99.90;;;;;;5077288;28;20453;-83
2023/02/15 09:18:16;;;;;;;2.03;1.30;;;9.10;99.90;;;;;;5076769;28;20449;-83
2023/02/15 09:20:45;;;;;;;1.87;1.10;;;10.50;99.90;;;;;;5076946;28;20449;-83
2023/02/15 09:23:11;;;;;;;3.57;1.30;;;11.70;99.90;;;;;;5076721;28;20454;-83
2023/02/15 09:25:40;;;;;;;2.47;2.00;;;12.80;99.90;;;;;;5076916;28;20449;-83
2023/02/15 09:28:06;;;;;;;1.33;1.23;;;14.00;99.90;;;;;;5076845;28;20540;-83
2023/02/15 09:30:34;;;;;;;2.90;1.20;;;15.20;99.90;;;;;;5076785;28;20560;-83
2023/02/15 09:33:01;;;;;;;3.30;1.63;;;16.50;97.50;;;;;;5076452;28;20944;-84
2023/02/15 09:35:27;;;;;;;1.73;1.53;;;18.00;91.20;;;;;;5076402;28;20473;-83
2023/02/15 09:37:54;;;;;;;3.13;2.70;;;19.20;80.90;;;;;;5076801;28;20469;-83
2023/02/15 09:40:21;;;;;;;6.63;2.70;;;20.40;73.50;;;;;;5076355;28;20453;-83
2023/02/15 09:43:08;;;;;;;4.70;1.77;;;21.40;68.50;;;;;;5076230;28;21012;-83
2023/02/15 09:45:59;;;;;;;1.20;1.10;;;22.20;59.40;;;;;;5076621;28;20447;-84
2023/02/15 09:48:39;;;;;;;2.90;1.90;;;22.60;55.80;;;;;;5076287;28;20425;-83
2023/02/15 09:51:24;;;;;;;5.00;2.83;;;22.80;54.40;;;;;;5076176;28;20913;-83
2023/02/15 09:54:10;;;;;;;5.20;2.50;;;23.00;54.00;;;;;;5076472;28;20452;-84
2023/02/15 09:56:43;;;;;;;6.10;3.63;;;23.10;53.80;;;;;;5076319;28;20222;-83
2023/02/15 09:59:20;;;;;;;6.50;4.10;;;23.30;54.30;;;;;;5076354;28;20195;-84
2023/02/15 10:01:56;;;;;;;5.63;2.97;;;23.40;54.00;;;;;;5075900;28;20667;-83
2023/02/15 10:04:49;;;;;;;6.93;3.53;;;23.10;51.10;;;;;;5076280;28;20209;-82
2023/02/15 10:07:30;;;;;;;3.58;2.85;;;22.60;53.00;;;;;;5076086;28;20230;-82
2023/02/15 10:10:09;;;;;;;7.30;3.10;;;22.20;53.00;;;;;;5076176;28;20187;-82
2023/02/15 10:12:54;;;;;;;7.27;3.60;;;21.40;54.60;;;;;;5076132;28;20186;-82
2023/02/15 10:15:32;;;;;;;3.47;2.60;;;21.00;56.50;;;;;;5075773;28;20433;-82
2023/02/15 10:18:20;;;;;;;5.40;2.90;;;20.50;56.10;;;;;;5075914;28;20577;-82
2023/02/15 10:20:58;;;;;;;3.87;3.03;;;20.60;54.20;;;;;;5075680;28;20440;-82
2023/02/15 10:23:41;;;;;;;4.27;2.20;;;21.10;54.10;;;;;;5074818;28;20421;-82
2023/02/15 10:26:15;;;;;;;3.40;2.40;;;21.90;52.50;;;;;;5075432;28;20948;-82
2023/02/15 10:28:46;;;;;;;6.50;2.20;;;22.60;53.20;;;;;;5075505;28;20803;-82
2023/02/15 10:31:24;;;;;;;3.07;2.83;;;23.50;50.40;;;;;;5075758;28;20465;-82
2023/02/15 10:34:07;;;;;;;6.87;3.17;;;24.40;49.30;;;;;;5075741;28;20433;-82
2023/02/15 10:36:49;;;;;;;6.40;3.30;;;24.90;48.50;;;;;;5075197;28;20491;-82
2023/02/15 10:39:24;;;;;;;3.63;2.70;;;25.30;47.70;;;;;;5075657;28;20190;-83
2023/02/15 10:41:56;;;;;;;4.50;2.75;;;25.30;47.10;;;;;;5075376;28;20213;-83
2023/02/15 10:44:42;;;;;;;7.93;2.42;;;25.40;47.30;;;;;;5075508;28;20245;-83
2023/02/15 10:47:45;;;;;;;7.07;2.60;;;25.20;47.30;;;;;;5075054;28;20709;-83
2023/02/15 10:50:27;;;;;;;4.40;2.67;;;25.30;45.80;;;;;;5072724;28;20202;-83
2023/02/15 10:53:08;;;;;;;4.18;3.30;;;25.20;46.10;;;;;;5075374;28;20187;-83
2023/02/15 10:55:47;;;;;;;3.83;2.67;;;25.20;46.00;;;;;;5074912;28;20199;-83
2023/02/15 10:58:24;;;;;;;5.70;3.17;;;25.10;44.80;;;;;;5074998;28;20202;-83
2023/02/15 11:01:00;;;;;;;3.17;2.70;;;24.70;45.20;;;;;;5074889;28;20650;-82
2023/02/15 11:03:51;;;;;;;4.70;3.22;;;23.90;45.90;;;;;;5075172;28;20195;-83
2023/02/15 11:06:20;;;;;;;4.43;3.35;;;22.90;46.30;;;;;;5074662;28;20229;-82
2023/02/15 11:08:50;;;;;;;4.65;3.05;;;21.60;47.70;;;;;;5074989;28;20202;-82
2023/02/15 11:11:24;;;;;;;6.40;2.90;;;20.30;49.80;;;;;;5075000;28;20191;-82
2023/02/15 11:13:55;;;;;;;5.63;2.80;;;19.20;51.20;;;;;;5074965;28;20202;-82
2023/02/15 11:16:26;;;;;;;4.33;2.40;;;18.30;52.10;;;;;;5074589;28;20824;-82
2023/02/15 11:18:58;;;;;;;2.37;2.07;;;17.30;54.40;;;;;;5074899;28;20432;-82
2023/02/15 11:21:29;;;;;;;2.03;1.53;;;16.50;54.60;;;;;;5074612;28;20435;-82
2023/02/15 11:23:56;;;;;;;6.90;6.10;;;16.00;54.90;;;;;;5074670;28;20436;-82
2023/02/15 11:26:31;;;;;;;1.97;1.30;;;15.40;56.90;;;;;;5074269;28;20878;-82
2023/02/15 11:29:01;;;;;;;3.20;1.73;;;15.00;57.80;;;;;;5074670;28;20437;-82
2023/02/15 11:31:44;;;;;;;1.70;1.60;;;14.80;57.50;;;;;;5074539;28;20437;-82
2023/02/15 11:34:20;;;;;;;6.37;2.07;;;14.50;58.90;;;;;;5074519;28;20797;-82
2023/02/15 11:36:50;;;;;;;2.10;1.20;;;14.20;59.50;;;;;;5073888;28;20485;-82
2023/02/15 11:39:18;;;;;;;3.43;1.50;;;14.00;59.90;;;;;;5074642;28;20452;-82
2023/02/15 11:41:51;;;;;;;2.17;1.20;;;13.90;58.30;;;;;;5073976;28;21066;-82
2023/02/15 11:44:22;;;;;;;2.47;1.17;;;13.90;58.90;;;;;;5074308;28;20440;-82
2023/02/15 11:46:49;;;;;;;3.80;1.90;;;13.80;59.40;;;;;;5073853;28;21023;-82
2023/02/15 11:49:23;;;;;;;5.83;1.67;;;13.70;59.60;;;;;;5073877;28;20811;-82
2023/02/15 11:51:51;;;;;;;2.13;1.67;;;13.70;61.00;;;;;;5074143;28;20429;-82
2023/02/15 11:54:20;;;;;;;1.50;1.33;;;13.70;60.00;;;;;;5074129;28;20445;-82
2023/02/15 11:56:47;;;;;;;5.13;1.47;;;13.60;61.10;;;;;;5073921;28;20477;-81
2023/02/15 11:59:22;;;;;;;6.43;2.07;;;13.60;62.10;;;;;;5073713;28;20901;-82
2023/02/15 12:01:49;;;;;;;3.27;1.53;;;13.50;61.90;;;;;;5073523;28;20465;-82
2023/02/15 12:04:23;;;;;;;5.27;2.47;;;13.50;62.00;;;;;;5073952;28;20433;-82
2023/02/15 12:06:55;;;;;;;1.80;1.10;;;13.40;62.10;;;;;;5073829;28;20844;-82
2023/02/15 12:09:31;;;;;;;5.60;1.70;;;13.40;64.60;;;;;;5073580;28;20441;-82
2023/02/15 12:12:21;;;;;;;1.70;1.00;;;13.30;63.90;;;;;;5073546;28;20497;-81
2023/02/15 12:14:49;;;;;;;2.20;2.00;;;13.10;62.70;;;;;;5073769;28;20487;-82
2023/02/15 12:17:17;;;;;;;2.23;1.50;;;13.10;63.10;;;;;;5073647;28;20478;-81
2023/02/15 12:19:50;;;;;;;4.17;1.57;;;13.00;62.50;;;;;;5073699;28;20445;-81
2023/02/15 12:22:23;;;;;;;4.73;1.20;;;12.90;63.80;;;;;;5073540;28;20465;-82
2023/02/15 12:24:53;;;;;;;2.83;1.70;;;12.90;64.80;;;;;;5073656;28;20851;-85
2023/02/15 12:27:22;;;;;;;6.00;1.30;;;12.90;65.90;;;;;;5073543;28;20498;-83
2023/02/15 12:29:53;;;;;;;4.67;1.80;;;12.80;65.80;;;;;;5073525;28;20454;-82
2023/02/15 12:32:23;;;;;;;3.00;1.43;;;12.80;63.50;;;;;;5073478;28;20429;-83
2023/02/15 12:34:55;;;;;;;1.27;0.90;;;12.70;64.90;;;;;;5073181;28;20916;-82
2023/02/15 12:37:26;;;;;;;4.67;1.77;;;12.70;62.80;;;;;;5073023;28;20485;-82
2023/02/15 12:39:55;;;;;;;2.33;1.57;;;12.60;62.80;;;;;;5073488;28;20434;-82
2023/02/15 12:42:25;;;;;;;1.33;0.80;;;12.60;63.30;;;;;;5073364;28;20485;-82
2023/02/15 12:44:58;;;;;;;4.00;1.67;;;12.60;64.50;;;;;;5073349;28;20437;-82
2023/02/15 12:47:26;;;;;;;1.93;1.40;;;12.40;65.10;;;;;;5072864;28;20473;-83
2023/02/15 12:50:23;;;;;;;1.43;0.87;;;12.30;65.90;;;;;;5073314;28;20465;-83
2023/02/15 12:52:51;;;;;;;2.13;1.30;;;12.30;65.50;;;;;;5073319;28;20440;-83
2023/02/15 12:55:22;;;;;;;1.50;1.00;;;12.20;65.90;;;;;;5072979;28;20461;-82
2023/02/15 12:57:50;;;;;;;3.03;1.10;;;12.20;64.30;;;;;;5073214;28;20476;-80
2023/02/15 13:00:31;;;;;;;2.83;1.00;;;12.10;64.10;;;;;;5073252;28;20442;-80
2023/02/15 13:02:59;;;;;;;0.93;0.63;;;12.00;63.00;;;;;;5073108;28;20473;-81
2023/02/15 13:05:32;;;;;;;1.23;0.57;;;12.10;61.40;;;;;;5073180;28;20446;-81
2023/02/15 13:08:02;;;;;;;1.40;0.97;;;12.10;58.30;;;;;;5072828;28;21016;-81
2023/02/15 13:10:31;;;;;;;1.00;0.90;;;12.10;59.00;;;;;;5072799;28;20945;-82
2023/02/15 13:12:59;;;;;;;1.00;0.87;;;12.10;59.50;;;;;;5072078;28;20445;-82
2023/02/15 13:15:35;;;;;;;0.70;0.70;;;12.30;58.70;;;;;;5072841;28;20816;-82
2023/02/15 13:18:03;;;;;;;2.50;2.00;;;12.30;59.00;;;;;;5072758;28;20472;-82
2023/02/15 13:20:36;;;;;;;1.70;1.20;;;12.20;59.70;;;;;;5072989;28;20458;-82
2023/02/15 13:23:06;;;;;;;2.87;1.00;;;12.00;61.80;;;;;;5072665;28;20973;-82
2023/02/15 13:25:40;;;;;;;3.37;1.00;;;11.90;61.80;;;;;;5072826;28;20460;-82
2023/02/15 13:28:11;;;;;;;5.60;1.53;;;11.90;63.20;;;;;;5072901;28;20477;-82
2023/02/15 13:30:43;;;;;;;1.60;1.17;;;11.80;62.70;;;;;;5072900;28;20491;-82
2023/02/15 13:33:17;;;;;;;1.80;0.73;;;11.80;62.10;;;;;;5072921;28;20414;-82
2023/02/15 13:35:52;;;;;;;1.00;0.90;;;11.90;62.00;;;;;;5072671;28;20482;-82